Ana Sayfa
METAR-TAF:

METAR-TAF

Havaalanları :

Tokat Havalimanı

Tokat, Türkiye

Enlem: 40-18N, Boylam: 036-34E, yükseklik: 608 m

Güncel hava durumu gözlemi

Rapor saat 11:50 UTC de 54 dakika önce yapıldı.
Rüzgar kuzeydoğudan 4 kt, kuzey/kuzeybatı ve doğu arasında değişken
Sıcaklık 9°C
Nem 43%
Basınç 1022 hPa
Görüş mesafesi 10 km veya daha fazla
3500 ft yükseklikte parçalı bulutlu
10000 ft yükseklikte parçalı çok bulutlu

METAR: LTAW 191150Z 04004KT 340V090 9999 SCT035 BKN100 09/M03 Q1022

Saat: 15:44 (12:44 UTC)

Tahmin

Rapor saat 10:40 UTC de 2 saat ve 4 dakika önce yapıldı.
Ayın 19'si saat 12 UTC'den ayın 19'si saat 21 UTC'ye kadar geçerli Tahmin
Rüzgar değişken yönden 2 kt
Görüş mesafesi 10 km veya daha fazla
4000 ft yükseklikte parçalı bulutlu
Dönüşüyor
ayın 19'si saat 18 UTC'den ayın 19'si saat 21 UTC'ye kadar
Görüş mesafesi 10 km veya daha fazla
1500 m altında bulut yok ve kümülonimbus yok

TAF: LTAW 191040Z 1912/1921 VRB02KT 9999 SCT040 BECMG 1918/1921 CAVOK

4.000'den fazla havaalanı için hava durumu gözlemleri ve tahminleri (METAR ve TAF raporları).

Kullanılabilir istasyonlar harita üzerinde sarı ve kırmızı noktalarla gösterilir.

İstasyonun adını görmek için fareyi noktanın üzerinde gezdirin.

Sonrasında hava gözlem ve tahminlerini görmek için tıklayın.

Haritayı değiştirmek için: yaklaştırmak için siyah artı işaretli yeşil düğmeye ve uzaklaştırmak için de eksi işaretli düğmeye hızla tıklayın; bitişik haritalar için yeşil okları kullanın.


METAR-TAF: